Time;durP1;ratioP1;P1;durP2;ratioP2;P2;SDS_P1;SDS_P2;PMS_P1;PMS_P2;Temp;Humidity;BMP_temperature;BMP_pressure;BME280_temperature;BME280_humidity;BME280_pressure;Samples;Min_cycle;Max_cycle;Signal;HPM_P1;HPM_P2
2021/10/28 00:13:53;;;;;;;0.70;0.45;;;12.40;99.90;;;;;;4970099;28;20157;-68
2021/10/28 00:16:32;;;;;;;0.90;0.50;;;12.50;99.90;;;;;;4960336;28;20051;-68
2021/10/28 00:19:00;;;;;;;3.33;0.70;;;12.50;99.90;;;;;;4961985;28;20059;-66
2021/10/28 00:21:37;;;;;;;1.30;1.20;;;12.50;99.90;;;;;;4961538;28;20055;-68
2021/10/28 00:24:07;;;;;;;4.28;0.70;;;12.50;99.90;;;;;;4958752;28;21380;-73
2021/10/28 00:26:35;;;;;;;1.77;0.60;;;12.50;99.90;;;;;;4961267;28;20465;-68
2021/10/28 00:29:06;;;;;;;0.98;0.50;;;12.40;99.90;;;;;;4959684;28;20074;-75
2021/10/28 00:31:35;;;;;;;1.33;0.60;;;12.40;99.90;;;;;;4958613;28;20122;-68
2021/10/28 00:34:03;;;;;;;3.33;1.23;;;12.40;99.90;;;;;;4958755;28;20035;-67
2021/10/28 00:36:31;;;;;;;4.22;0.93;;;12.40;99.90;;;;;;4958372;28;20125;-71
2021/10/28 00:38:58;;;;;;;4.43;0.80;;;12.30;99.90;;;;;;4960256;28;20451;-69
2021/10/28 00:41:26;;;;;;;1.75;0.88;;;12.30;99.90;;;;;;4960145;28;20287;-67
2021/10/28 00:43:55;;;;;;;0.50;0.30;;;12.30;99.90;;;;;;4962096;28;20053;-67
2021/10/28 00:46:26;;;;;;;1.92;0.52;;;12.30;99.90;;;;;;4959639;28;20504;-72
2021/10/28 00:48:53;;;;;;;3.28;0.70;;;12.30;99.90;;;;;;4961136;28;20439;-69
2021/10/28 00:51:24;;;;;;;0.55;0.50;;;12.40;99.90;;;;;;4961177;28;20093;-65
2021/10/28 00:53:53;;;;;;;4.72;0.70;;;12.40;99.90;;;;;;4959387;28;20559;-71
2021/10/28 00:56:22;;;;;;;2.38;0.47;;;12.30;99.90;;;;;;4958427;28;20142;-69
2021/10/28 00:58:50;;;;;;;4.13;0.60;;;12.40;99.90;;;;;;4958591;28;20078;-70
2021/10/28 01:01:18;;;;;;;2.75;1.75;;;12.30;99.90;;;;;;4960504;28;20070;-68
2021/10/28 01:03:46;;;;;;;1.42;0.52;;;12.30;99.90;;;;;;4959079;28;20109;-67
2021/10/28 01:06:14;;;;;;;0.80;0.60;;;12.30;99.90;;;;;;4958764;28;20152;-68
2021/10/28 01:08:45;;;;;;;2.38;0.75;;;12.30;99.90;;;;;;4958357;28;20055;-67
2021/10/28 01:11:13;;;;;;;3.38;0.93;;;12.30;99.90;;;;;;4960490;28;20059;-68
2021/10/28 01:13:41;;;;;;;2.65;0.52;;;12.30;99.90;;;;;;4959652;28;20134;-72
2021/10/28 01:16:08;;;;;;;1.35;0.73;;;12.30;99.90;;;;;;4959220;28;20046;-74
2021/10/28 01:18:38;;;;;;;3.45;0.95;;;12.30;99.90;;;;;;4959369;28;20058;-66
2021/10/28 01:21:08;;;;;;;2.03;1.33;;;12.30;99.90;;;;;;4952152;28;21549;-74
2021/10/28 01:23:38;;;;;;;1.52;0.77;;;12.30;99.90;;;;;;4956748;28;20281;-68
2021/10/28 01:26:11;;;;;;;2.08;1.23;;;12.40;99.90;;;;;;4940307;28;20102;-69
2021/10/28 01:28:50;;;;;;;1.55;1.05;;;12.40;99.90;;;;;;4942459;28;20187;-66
2021/10/28 01:31:20;;;;;;;1.27;1.02;;;12.50;99.90;;;;;;4941718;28;20055;-66
2021/10/28 01:33:47;;;;;;;1.90;1.30;;;12.40;99.90;;;;;;4960579;28;20111;-69
2021/10/28 01:36:17;;;;;;;1.52;0.95;;;12.40;99.90;;;;;;4959505;28;20104;-69
2021/10/28 01:38:44;;;;;;;3.35;0.95;;;12.40;99.90;;;;;;4961098;28;20057;-67
2021/10/28 01:41:12;;;;;;;3.70;1.58;;;12.40;99.90;;;;;;4960423;28;20055;-69
2021/10/28 01:43:38;;;;;;;4.32;1.27;;;12.40;99.90;;;;;;4960775;28;20149;-67
2021/10/28 01:46:06;;;;;;;3.97;2.08;;;12.30;99.90;;;;;;4959848;28;20481;-66
2021/10/28 01:48:36;;;;;;;1.67;1.00;;;12.40;99.90;;;;;;4958903;28;20130;-69
2021/10/28 01:51:03;;;;;;;3.00;1.00;;;12.30;99.90;;;;;;4960027;28;20046;-66
2021/10/28 01:53:30;;;;;;;3.85;0.90;;;12.30;99.90;;;;;;4960295;28;20125;-69
2021/10/28 01:55:57;;;;;;;2.35;1.20;;;12.30;99.90;;;;;;4958485;28;20446;-69
2021/10/28 01:58:24;;;;;;;4.85;0.90;;;12.30;99.90;;;;;;4960709;28;20178;-68
2021/10/28 02:00:52;;;;;;;2.03;0.70;;;12.40;99.90;;;;;;4965377;28;20712;-68
2021/10/28 02:03:21;;;;;;;2.28;0.93;;;12.40;99.90;;;;;;4962681;28;20133;-75
2021/10/28 02:05:49;;;;;;;1.55;0.77;;;12.50;99.90;;;;;;4950322;28;20074;-78
2021/10/28 02:08:16;;;;;;;2.05;0.80;;;12.50;99.90;;;;;;4943281;28;20457;-70
2021/10/28 02:10:45;;;;;;;2.00;0.57;;;12.60;99.90;;;;;;4944533;28;20078;-66
2021/10/28 02:13:13;;;;;;;2.17;0.40;;;12.60;99.90;;;;;;4945024;28;20158;-69
2021/10/28 02:15:41;;;;;;;1.13;0.85;;;12.70;99.90;;;;;;4945030;28;20470;-66
2021/10/28 02:18:08;;;;;;;1.25;0.55;;;12.70;99.90;;;;;;4962164;28;21110;-68
2021/10/28 02:20:38;;;;;;;1.17;0.77;;;12.80;99.90;;;;;;4944889;28;20125;-70
2021/10/28 02:23:07;;;;;;;2.33;0.93;;;12.80;99.90;;;;;;4957018;28;20058;-69
2021/10/28 02:25:34;;;;;;;0.68;0.50;;;12.80;99.90;;;;;;4952806;28;20067;-74
2021/10/28 02:28:01;;;;;;;1.75;0.40;;;12.80;99.90;;;;;;4947895;28;20086;-69
2021/10/28 02:30:28;;;;;;;0.60;0.60;;;12.90;99.90;;;;;;4963116;28;20055;-72
2021/10/28 02:32:55;;;;;;;0.63;0.28;;;12.90;99.90;;;;;;4945324;28;20216;-70
2021/10/28 02:35:22;;;;;;;2.75;0.35;;;12.90;99.90;;;;;;4956023;28;20090;-72
2021/10/28 02:37:49;;;;;;;0.28;0.28;;;13.00;99.90;;;;;;4967780;28;20437;-74
2021/10/28 02:40:16;;;;;;;1.23;0.30;;;13.00;99.90;;;;;;4944096;28;20173;-69
2021/10/28 02:42:43;;;;;;;1.50;0.28;;;13.00;99.90;;;;;;4946954;28;20090;-71
2021/10/28 02:45:10;;;;;;;0.68;0.40;;;13.10;99.90;;;;;;4945849;28;20207;-71
2021/10/28 02:47:37;;;;;;;0.80;0.65;;;13.20;99.90;;;;;;4958575;28;20078;-72
2021/10/28 02:50:05;;;;;;;0.45;0.25;;;13.20;99.90;;;;;;4943652;28;20138;-74
2021/10/28 02:52:34;;;;;;;0.50;0.22;;;13.20;99.90;;;;;;4941685;28;20134;-73
2021/10/28 02:55:03;;;;;;;0.30;0.30;;;13.30;99.90;;;;;;4943950;28;20078;-73
2021/10/28 02:57:30;;;;;;;0.50;0.50;;;13.20;99.90;;;;;;4943070;28;20190;-67
2021/10/28 02:59:57;;;;;;;1.15;0.80;;;13.20;99.90;;;;;;4959032;28;20090;-70
2021/10/28 03:02:24;;;;;;;3.08;0.90;;;13.10;99.90;;;;;;4962233;28;20657;-68
2021/10/28 03:04:54;;;;;;;1.67;0.98;;;13.00;99.90;;;;;;4962693;28;20412;-69
2021/10/28 03:07:21;;;;;;;1.17;0.70;;;13.00;99.90;;;;;;4963503;28;20054;-67
2021/10/28 03:09:48;;;;;;;0.95;0.50;;;13.00;99.90;;;;;;4962992;28;21523;-69
2021/10/28 03:12:15;;;;;;;0.98;0.65;;;12.90;99.90;;;;;;4961402;28;20551;-70
2021/10/28 03:27:49;;;;;;;5.25;1.02;;;12.90;99.90;;;;;;4960310;28;20050;-70
2021/10/28 03:30:16;;;;;;;2.60;0.90;;;12.90;99.90;;;;;;4958353;28;20660;-68
2021/10/28 03:32:43;;;;;;;1.77;1.25;;;12.90;99.90;;;;;;4953600;28;20867;-74
2021/10/28 03:35:14;;;;;;;1.83;0.95;;;12.90;99.90;;;;;;4945927;28;20117;-67
2021/10/28 03:37:46;;;;;;;1.50;0.50;;;12.90;99.90;;;;;;4944063;28;20117;-70
2021/10/28 03:54:21;;;;;;;3.10;1.05;;;12.80;99.90;;;;;;4959382;28;20141;-71
2021/10/28 04:08:15;;;;;;;2.03;1.30;;;12.80;99.90;;;;;;4961573;28;20586;-73
2021/10/28 04:29:34;;;;;;;1.90;0.90;;;12.70;99.90;;;;;;4945037;28;20174;-69
2021/10/28 04:32:02;;;;;;;1.52;0.73;;;12.70;99.90;;;;;;4937829;28;20134;-70
2021/10/28 04:34:30;;;;;;;2.28;0.70;;;12.70;99.90;;;;;;4942569;28;20145;-73
2021/10/28 04:36:56;;;;;;;1.55;1.10;;;12.70;99.90;;;;;;4941610;28;20063;-74
2021/10/28 04:39:23;;;;;;;0.50;0.50;;;12.70;99.90;;;;;;4952627;28;21051;-69
2021/10/28 04:41:50;;;;;;;3.40;1.48;;;12.60;99.90;;;;;;4960105;28;20054;-73
2021/10/28 04:44:17;;;;;;;1.88;1.00;;;12.70;99.90;;;;;;4959411;28;20054;-68
2021/10/28 04:46:44;;;;;;;7.25;1.42;;;12.60;99.90;;;;;;4961253;28;20074;-67
2021/10/28 04:49:11;;;;;;;2.38;0.88;;;12.60;99.90;;;;;;4961368;28;20169;-72
2021/10/28 04:51:38;;;;;;;4.70;1.10;;;12.60;99.90;;;;;;4961116;28;20051;-68
2021/10/28 04:54:05;;;;;;;3.45;1.42;;;12.60;99.90;;;;;;4958638;28;20807;-68
2021/10/28 04:56:32;;;;;;;4.10;1.33;;;12.50;99.90;;;;;;4961423;28;20086;-69
2021/10/28 04:58:59;;;;;;;9.10;1.45;;;12.50;99.90;;;;;;4959670;28;21430;-68
2021/10/28 05:01:26;;;;;;;2.58;1.15;;;12.50;99.90;;;;;;4961115;28;20075;-73
2021/10/28 05:03:53;;;;;;;4.90;1.20;;;12.50;99.90;;;;;;4960607;28;20132;-70
2021/10/28 05:06:20;;;;;;;1.13;1.02;;;12.50;99.90;;;;;;4959934;28;20090;-68
2021/10/28 05:08:47;;;;;;;4.28;2.17;;;12.40;99.90;;;;;;4959845;28;20168;-67
2021/10/28 05:11:18;;;;;;;3.90;1.77;;;12.40;99.90;;;;;;4960534;28;20413;-68
2021/10/28 05:13:46;;;;;;;4.95;1.33;;;12.40;99.90;;;;;;4958467;28;20516;-70
2021/10/28 05:16:13;;;;;;;2.95;2.20;;;12.40;99.90;;;;;;4953897;28;20050;-69
2021/10/28 05:18:40;;;;;;;3.65;2.28;;;12.30;99.90;;;;;;4962064;28;20051;-69
2021/10/28 05:21:09;;;;;;;8.55;1.65;;;12.30;99.90;;;;;;4960945;28;20134;-68
2021/10/28 05:23:38;;;;;;;2.10;1.35;;;12.30;99.90;;;;;;4959717;28;20113;-66
2021/10/28 05:26:05;;;;;;;2.25;1.20;;;12.30;99.90;;;;;;4957862;28;20509;-70
2021/10/28 05:28:34;;;;;;;4.65;1.88;;;12.30;99.90;;;;;;4959124;28;20066;-65
2021/10/28 05:31:01;;;;;;;6.25;2.33;;;12.30;99.90;;;;;;4961050;28;20059;-66
2021/10/28 05:33:28;;;;;;;5.32;2.70;;;12.30;99.90;;;;;;4961048;28;20054;-68
2021/10/28 05:35:55;;;;;;;5.65;2.83;;;12.30;99.90;;;;;;4960933;28;20088;-68
2021/10/28 05:38:22;;;;;;;6.30;1.88;;;12.30;99.90;;;;;;4958964;28;20133;-66
2021/10/28 05:40:49;;;;;;;2.35;1.83;;;12.20;99.90;;;;;;4959452;28;20522;-67
2021/10/28 05:43:16;;;;;;;4.32;2.40;;;12.20;99.90;;;;;;4960292;28;20133;-69
2021/10/28 05:45:44;;;;;;;3.65;1.75;;;12.20;99.90;;;;;;4959615;28;20054;-68
2021/10/28 05:48:11;;;;;;;2.33;1.90;;;12.20;99.90;;;;;;4959887;28;20165;-66
2021/10/28 05:50:41;;;;;;;5.55;2.08;;;12.20;99.90;;;;;;4961016;28;20140;-65
2021/10/28 05:53:10;;;;;;;3.92;1.85;;;12.20;99.90;;;;;;4961163;28;20129;-69
2021/10/28 05:55:37;;;;;;;2.75;1.75;;;12.20;99.90;;;;;;4958706;28;21467;-74
2021/10/28 05:58:04;;;;;;;3.53;1.63;;;12.20;99.90;;;;;;4958255;28;21485;-68
2021/10/28 06:00:31;;;;;;;3.70;1.98;;;12.10;99.90;;;;;;4959116;28;20055;-77
2021/10/28 06:02:58;;;;;;;2.58;1.90;;;12.20;99.90;;;;;;4959322;28;20055;-73
2021/10/28 06:05:25;;;;;;;2.08;1.85;;;12.20;99.90;;;;;;4958873;28;20121;-74
2021/10/28 06:07:52;;;;;;;3.15;2.20;;;12.20;99.90;;;;;;4960429;28;20113;-65
2021/10/28 06:10:19;;;;;;;4.10;2.80;;;12.10;99.90;;;;;;4956544;28;20062;-68
2021/10/28 06:12:49;;;;;;;4.95;2.35;;;12.10;99.90;;;;;;4959171;28;20179;-67
2021/10/28 06:15:17;;;;;;;2.65;1.15;;;12.10;99.90;;;;;;4958731;28;20074;-67
2021/10/28 06:17:50;;;;;;;3.95;1.70;;;12.10;99.90;;;;;;4959062;28;20058;-69
2021/10/28 06:20:18;;;;;;;7.32;2.08;;;12.10;99.90;;;;;;4952938;28;20775;-67
2021/10/28 06:22:45;;;;;;;3.90;2.13;;;12.10;99.90;;;;;;4959765;28;20626;-71
2021/10/28 06:25:12;;;;;;;3.83;1.50;;;12.20;99.90;;;;;;4957937;28;20075;-66
2021/10/28 06:27:40;;;;;;;4.15;1.45;;;12.20;99.90;;;;;;4959900;28;20047;-67
2021/10/28 06:30:07;;;;;;;5.03;1.35;;;12.10;99.90;;;;;;4956901;28;20460;-74
2021/10/28 06:32:35;;;;;;;2.35;1.50;;;12.10;99.90;;;;;;4959528;28;20180;-69
2021/10/28 06:35:04;;;;;;;7.78;2.03;;;12.20;99.90;;;;;;4958476;28;20074;-65
2021/10/28 06:37:31;;;;;;;5.25;1.55;;;12.10;99.90;;;;;;4958924;28;20152;-75
2021/10/28 06:39:58;;;;;;;7.00;2.28;;;12.20;99.90;;;;;;4957771;28;20154;-68
2021/10/28 06:42:25;;;;;;;3.55;0.90;;;12.20;99.90;;;;;;4959719;28;20144;-72
2021/10/28 06:44:52;;;;;;;4.25;1.70;;;12.20;99.90;;;;;;4960001;28;21586;-73
2021/10/28 06:47:19;;;;;;;3.28;1.25;;;12.30;99.90;;;;;;4962570;28;20078;-68
2021/10/28 06:49:47;;;;;;;7.13;2.60;;;12.30;99.90;;;;;;4963089;28;20146;-69
2021/10/28 06:52:14;;;;;;;3.45;1.73;;;12.30;99.90;;;;;;4961432;28;20078;-68
2021/10/28 06:54:42;;;;;;;4.65;1.48;;;12.40;99.90;;;;;;4963448;28;20145;-68
2021/10/28 07:05:02;;;;;;;4.45;1.52;;;12.50;99.90;;;;;;4960687;28;20070;-69
2021/10/28 07:07:30;;;;;;;3.55;1.65;;;12.50;99.90;;;;;;4948969;28;20047;-69
2021/10/28 07:10:08;;;;;;;2.28;1.42;;;12.50;99.90;;;;;;4967080;28;20046;-66
2021/10/28 07:20:47;;;;;;;2.53;1.45;;;12.50;99.90;;;;;;4947153;28;20055;-66
2021/10/28 07:23:31;;;;;;;6.50;1.95;;;12.50;99.90;;;;;;4954634;28;20102;-65
2021/10/28 07:33:43;;;;;;;3.72;1.67;;;12.70;99.90;;;;;;4979216;28;20105;-65
2021/10/28 08:19:38;;;;;;;3.80;1.10;;;13.20;99.90;;;;;;4981973;28;20082;-71
2021/10/28 08:22:19;;;;;;;2.47;1.25;;;13.30;99.90;;;;;;4970259;28;20054;-65
2021/10/28 08:30:27;;;;;;;3.22;1.70;;;13.30;99.90;;;;;;4967965;28;20174;-65
2021/10/28 08:32:56;;;;;;;8.35;3.55;;;13.30;99.90;;;;;;4968763;28;20048;-66
2021/10/28 08:35:52;;;;;;;3.53;2.40;;;13.20;99.90;;;;;;4973557;28;20081;-65
2021/10/28 08:38:20;;;;;;;3.65;2.17;;;13.20;99.90;;;;;;4963960;28;20051;-65
2021/10/28 08:40:52;;;;;;;5.80;2.60;;;13.20;99.90;;;;;;4959117;28;20067;-65
2021/10/28 08:43:21;;;;;;;3.13;2.05;;;13.30;99.90;;;;;;4970133;28;20084;-65
2021/10/28 08:45:52;;;;;;;4.93;2.67;;;13.30;99.90;;;;;;4968527;28;20073;-66
2021/10/28 08:48:25;;;;;;;4.55;3.53;;;13.30;99.90;;;;;;4981966;28;20051;-69
2021/10/28 08:51:04;;;;;;;4.97;2.75;;;13.30;99.90;;;;;;4978472;28;20078;-65
2021/10/28 08:56:36;;;;;;;5.18;2.40;;;13.30;99.90;;;;;;4967913;28;20070;-70
2021/10/28 09:25:07;;;;;;;2.83;1.60;;;13.40;99.90;;;;;;4965789;28;20389;-67
2021/10/28 09:28:26;;;;;;;3.20;1.80;;;13.40;99.90;;;;;;4969679;28;20134;-65
2021/10/28 09:30:55;;;;;;;3.42;1.02;;;13.40;99.90;;;;;;4965443;28;20093;-71
2021/10/28 09:33:50;;;;;;;4.75;1.13;;;13.50;99.90;;;;;;4961751;28;20050;-64
2021/10/28 09:51:16;;;;;;;4.35;1.50;;;13.50;99.90;;;;;;4948384;28;20370;-65
2021/10/28 09:59:47;;;;;;;2.67;2.25;;;13.60;99.90;;;;;;4969891;28;20062;-71
2021/10/28 10:05:09;;;;;;;3.80;2.55;;;13.60;99.90;;;;;;4956659;28;20055;-68
2021/10/28 10:07:36;;;;;;;4.65;2.00;;;13.60;99.90;;;;;;4950080;28;20106;-65
2021/10/28 10:10:04;;;;;;;3.97;2.80;;;13.70;99.90;;;;;;4946183;28;20808;-69
2021/10/28 10:12:32;;;;;;;5.28;2.08;;;13.70;99.90;;;;;;4947332;28;20051;-65
2021/10/28 10:15:02;;;;;;;4.93;2.38;;;13.70;99.90;;;;;;4947257;28;20397;-71
2021/10/28 10:17:30;;;;;;;8.55;3.22;;;13.70;99.90;;;;;;4944641;28;20152;-66
2021/10/28 10:19:58;;;;;;;4.63;2.40;;;13.70;99.90;;;;;;4946136;28;20094;-67
2021/10/28 10:25:18;;;;;;;3.45;2.13;;;13.80;99.90;;;;;;4969297;28;20077;-65
2021/10/28 11:15:46;;;;;;;9.38;2.60;;;13.30;99.90;;;;;;4949928;28;20054;-69
2021/10/28 11:21:37;;;;;;;5.60;2.55;;;13.20;99.90;;;;;;4955041;28;20047;-65
2021/10/28 14:31:23;;;;;;;6.97;3.17;;;12.80;99.90;;;;;;4966160;28;20054;-72
2021/10/28 15:36:28;;;;;;;10.95;4.88;;;12.00;99.90;;;;;;4947459;28;20385;-65
2021/10/28 15:41:54;;;;;;;6.78;4.65;;;11.80;99.90;;;;;;4950256;28;20074;-65
2021/10/28 16:22:33;;;;;;;13.57;8.90;;;11.00;99.90;;;;;;4917287;28;20149;-69
2021/10/28 16:25:01;;;;;;;18.73;9.20;;;10.90;99.90;;;;;;4930138;28;20118;-65
2021/10/28 16:27:28;;;;;;;11.80;8.65;;;10.90;99.90;;;;;;4930989;28;20054;-72
2021/10/28 16:29:55;;;;;;;15.55;10.00;;;10.80;99.90;;;;;;4931102;28;20050;-71
2021/10/28 16:32:22;;;;;;;17.98;12.68;;;10.80;99.90;;;;;;4928647;28;20042;-76
2021/10/28 16:34:50;;;;;;;19.25;12.43;;;10.80;99.90;;;;;;4929200;28;20133;-74
2021/10/28 16:37:18;;;;;;;18.67;11.43;;;10.80;99.90;;;;;;4946409;28;20126;-66
2021/10/28 16:39:45;;;;;;;22.80;13.05;;;10.70;99.90;;;;;;4932375;28;20058;-65
2021/10/28 16:42:13;;;;;;;17.90;11.13;;;10.70;99.90;;;;;;4913337;28;20583;-75
2021/10/28 16:44:42;;;;;;;15.50;11.98;;;10.70;99.90;;;;;;4912464;28;20074;-75
2021/10/28 16:47:09;;;;;;;18.58;12.25;;;10.70;99.90;;;;;;4930099;28;20181;-67
2021/10/28 16:49:36;;;;;;;25.83;14.43;;;10.70;99.90;;;;;;4948990;28;20051;-65
2021/10/28 16:52:03;;;;;;;19.85;12.30;;;10.60;99.90;;;;;;4967568;28;20154;-68
2021/10/28 16:54:32;;;;;;;18.92;13.98;;;10.60;99.90;;;;;;4965758;28;20109;-65
2021/10/28 16:57:00;;;;;;;22.67;12.65;;;10.60;99.90;;;;;;4969897;28;20047;-65
2021/10/28 16:59:28;;;;;;;20.63;13.68;;;10.50;99.90;;;;;;4967768;28;20046;-66
2021/10/28 17:01:54;;;;;;;19.65;13.93;;;10.50;99.90;;;;;;4968630;28;20153;-75
2021/10/28 17:04:22;;;;;;;19.80;14.35;;;10.50;99.90;;;;;;4962435;28;20047;-65
2021/10/28 17:06:51;;;;;;;19.17;12.77;;;10.50;99.90;;;;;;4967868;28;20055;-69
2021/10/28 17:09:19;;;;;;;22.27;14.85;;;10.50;99.90;;;;;;4965277;28;20043;-66
2021/10/28 17:11:46;;;;;;;25.42;15.70;;;10.50;99.90;;;;;;4968817;28;20125;-70
2021/10/28 17:14:13;;;;;;;22.13;14.38;;;10.50;99.90;;;;;;4963796;28;20078;-68
2021/10/28 17:16:44;;;;;;;20.27;13.57;;;10.50;99.90;;;;;;4964415;28;20055;-71
2021/10/28 17:19:12;;;;;;;19.90;14.35;;;10.50;99.90;;;;;;4967012;28;20042;-65
2021/10/28 17:21:39;;;;;;;20.35;15.18;;;10.60;99.90;;;;;;4967180;28;20050;-66
2021/10/28 17:24:12;;;;;;;19.02;14.38;;;10.60;99.90;;;;;;4966885;28;20042;-66
2021/10/28 17:26:39;;;;;;;20.05;13.55;;;10.60;99.90;;;;;;4964559;28;20113;-65
2021/10/28 17:29:09;;;;;;;20.98;15.00;;;10.60;99.90;;;;;;4964338;28;20063;-70
2021/10/28 17:31:35;;;;;;;28.80;15.85;;;10.60;99.90;;;;;;4969273;28;20054;-65
2021/10/28 17:34:04;;;;;;;21.75;14.18;;;10.60;99.90;;;;;;4969085;28;20121;-68
2021/10/28 17:36:31;;;;;;;21.20;15.57;;;10.70;99.90;;;;;;4968276;28;20078;-68
2021/10/28 17:39:03;;;;;;;20.65;13.55;;;10.70;99.90;;;;;;4965122;28;20091;-67
2021/10/28 17:41:31;;;;;;;17.55;13.50;;;10.70;99.90;;;;;;4969092;28;20575;-65
2021/10/28 17:43:58;;;;;;;17.58;14.02;;;10.70;99.90;;;;;;4965696;28;20054;-66
2021/10/28 17:46:26;;;;;;;23.30;15.40;;;10.70;99.90;;;;;;4965919;28;20050;-68
2021/10/28 17:48:54;;;;;;;26.25;18.38;;;10.70;99.90;;;;;;4967327;28;20153;-66
2021/10/28 17:51:22;;;;;;;22.98;17.60;;;10.70;99.90;;;;;;4968000;28;20405;-74
2021/10/28 17:53:49;;;;;;;23.25;15.68;;;10.70;99.90;;;;;;4955101;28;20050;-70
2021/10/28 17:56:18;;;;;;;24.60;17.52;;;10.70;99.90;;;;;;4948506;28;20054;-65
2021/10/28 17:58:45;;;;;;;24.90;17.00;;;10.80;99.90;;;;;;4947292;28;20396;-69
2021/10/28 18:01:15;;;;;;;29.92;18.60;;;10.70;99.90;;;;;;4947850;28;20671;-75
2021/10/28 18:03:42;;;;;;;33.05;19.75;;;10.70;99.90;;;;;;4961559;28;20126;-66
2021/10/28 18:06:09;;;;;;;32.08;19.45;;;10.60;99.90;;;;;;4941481;28;20063;-67
2021/10/28 18:08:36;;;;;;;32.58;20.60;;;10.60;99.90;;;;;;4953148;28;20057;-66
2021/10/28 18:11:03;;;;;;;25.55;18.02;;;10.60;99.90;;;;;;4968196;28;20074;-69
2021/10/28 18:13:30;;;;;;;26.90;20.13;;;10.60;99.90;;;;;;4966145;28;20050;-67
2021/10/28 18:15:57;;;;;;;35.22;19.55;;;10.60;99.90;;;;;;4965707;28;20109;-66
2021/10/28 18:18:25;;;;;;;27.35;17.63;;;10.60;99.90;;;;;;4965005;28;20047;-65
2021/10/28 18:21:02;;;;;;;25.65;18.05;;;10.60;99.90;;;;;;4965843;28;20097;-65
2021/10/28 18:23:32;;;;;;;25.33;17.23;;;10.50;99.90;;;;;;4968441;28;20081;-65
2021/10/28 18:25:59;;;;;;;29.30;20.08;;;10.50;99.90;;;;;;4963740;28;20082;-68
2021/10/28 18:28:27;;;;;;;35.75;20.77;;;10.50;99.90;;;;;;4967822;28;20074;-65
2021/10/28 18:30:55;;;;;;;29.00;21.85;;;10.50;99.90;;;;;;4972458;28;20158;-64
2021/10/28 18:33:22;;;;;;;29.60;19.80;;;10.40;99.90;;;;;;4965498;28;20047;-73
2021/10/28 18:35:51;;;;;;;32.67;21.35;;;10.50;99.90;;;;;;4969763;28;20062;-65
2021/10/28 18:38:18;;;;;;;27.23;19.05;;;10.50;99.90;;;;;;4964623;28;20237;-66
2021/10/28 18:40:45;;;;;;;33.60;20.90;;;10.40;99.90;;;;;;4969664;28;20047;-72
2021/10/28 18:43:16;;;;;;;34.15;21.55;;;10.40;99.90;;;;;;4969701;28;20519;-67
2021/10/28 18:45:44;;;;;;;35.85;22.50;;;10.40;99.90;;;;;;4966217;28;20046;-66
2021/10/28 18:48:11;;;;;;;32.25;23.10;;;10.30;99.90;;;;;;4974922;28;20077;-70
2021/10/28 18:50:38;;;;;;;34.00;23.67;;;10.30;99.90;;;;;;4968677;28;20101;-76
2021/10/28 18:53:05;;;;;;;35.35;24.80;;;10.30;99.90;;;;;;4970624;28;20190;-66
2021/10/28 18:55:32;;;;;;;40.50;24.13;;;10.30;99.90;;;;;;4969259;28;20140;-65
2021/10/28 18:57:59;;;;;;;34.72;23.13;;;10.30;99.90;;;;;;4969116;28;20101;-66
2021/10/28 19:00:26;;;;;;;38.78;25.85;;;10.30;99.90;;;;;;4969502;28;20047;-65
2021/10/28 19:02:53;;;;;;;35.65;25.65;;;10.30;99.90;;;;;;4969419;28;20046;-68
2021/10/28 19:05:21;;;;;;;33.92;26.38;;;10.20;99.90;;;;;;4967897;28;20090;-67
2021/10/28 19:07:49;;;;;;;37.63;26.92;;;10.20;99.90;;;;;;4968722;28;20047;-66
2021/10/28 19:10:16;;;;;;;42.22;25.45;;;10.20;99.90;;;;;;4954039;28;20074;-65
2021/10/28 19:12:45;;;;;;;43.88;27.17;;;10.30;99.90;;;;;;4969378;28;20073;-72
2021/10/28 19:15:14;;;;;;;48.08;29.83;;;10.30;99.90;;;;;;4969418;28;20050;-67
2021/10/28 19:17:45;;;;;;;36.22;28.55;;;10.20;99.90;;;;;;4968957;28;20110;-72
2021/10/28 19:20:14;;;;;;;51.92;28.33;;;10.20;99.90;;;;;;4964104;28;20133;-65
2021/10/28 19:22:41;;;;;;;44.13;27.65;;;10.20;99.90;;;;;;4970497;28;20058;-69
2021/10/28 19:25:09;;;;;;;43.58;30.30;;;10.20;99.90;;;;;;4968592;28;20105;-67
2021/10/28 19:27:37;;;;;;;46.78;28.30;;;10.10;99.90;;;;;;4968223;28;20118;-66
2021/10/28 19:30:22;;;;;;;43.65;30.00;;;10.10;99.90;;;;;;4966437;28;20139;-73
2021/10/28 19:32:52;;;;;;;47.50;30.15;;;10.10;99.90;;;;;;4968235;28;20098;-67
2021/10/28 19:35:22;;;;;;;47.42;30.05;;;10.10;99.90;;;;;;4966630;28;20397;-66
2021/10/28 19:37:56;;;;;;;49.63;29.05;;;10.10;99.90;;;;;;4968505;28;20047;-68
2021/10/28 19:40:43;;;;;;;59.53;29.88;;;10.00;99.90;;;;;;4970195;28;20085;-65
2021/10/28 19:48:31;;;;;;;58.35;34.05;;;10.00;99.90;;;;;;4959095;28;20077;-65
2021/10/28 19:50:58;;;;;;;45.38;29.13;;;10.00;99.90;;;;;;4969573;28;20121;-71
2021/10/28 19:53:25;;;;;;;46.33;30.98;;;10.00;99.90;;;;;;4970002;28;20094;-74
2021/10/28 19:55:53;;;;;;;53.15;30.30;;;10.00;99.90;;;;;;4968818;28;20050;-69
2021/10/28 19:58:24;;;;;;;54.90;30.38;;;10.00;99.90;;;;;;4968217;28;20043;-69
2021/10/28 20:01:00;;;;;;;47.85;31.33;;;9.90;99.90;;;;;;4967711;28;20703;-65
2021/10/28 20:03:59;;;;;;;45.92;29.10;;;10.00;99.90;;;;;;4969607;28;20070;-65
2021/10/28 20:06:48;;;;;;;53.13;31.90;;;10.00;99.90;;;;;;4948186;28;20409;-66
2021/10/28 20:20:20;;;;;;;53.13;32.15;;;9.90;99.90;;;;;;4967542;28;20059;-65
2021/10/28 20:22:48;;;;;;;59.72;31.27;;;9.90;99.90;;;;;;4968345;28;20078;-65
2021/10/28 20:25:22;;;;;;;48.95;29.60;;;9.90;99.90;;;;;;4968979;28;20508;-71
2021/10/28 20:27:50;;;;;;;48.92;30.83;;;9.80;99.90;;;;;;4969267;28;20047;-68
2021/10/28 20:30:20;;;;;;;44.88;27.50;;;9.90;99.90;;;;;;4967084;28;20055;-68
2021/10/28 20:32:47;;;;;;;55.88;31.10;;;9.80;99.90;;;;;;4969101;28;20047;-69
2021/10/28 20:35:27;;;;;;;46.13;30.40;;;9.80;99.90;;;;;;4968813;28;20097;-69
2021/10/28 20:37:56;;;;;;;59.80;30.85;;;9.90;99.90;;;;;;4965003;28;20114;-65
2021/10/28 20:40:30;;;;;;;58.05;31.85;;;9.90;99.90;;;;;;4952624;28;20069;-68
2021/10/28 20:42:57;;;;;;;50.97;31.52;;;9.90;99.90;;;;;;4949472;28;20067;-68
2021/10/28 20:45:26;;;;;;;51.35;32.80;;;9.80;99.90;;;;;;4948467;28;20051;-69
2021/10/28 20:47:53;;;;;;;53.25;31.50;;;9.80;99.90;;;;;;4950018;28;20564;-65
2021/10/28 20:50:22;;;;;;;48.50;28.95;;;9.70;99.90;;;;;;4945858;28;20134;-71
2021/10/28 20:52:49;;;;;;;54.72;33.08;;;9.70;99.90;;;;;;4959505;28;20126;-65
2021/10/28 20:55:16;;;;;;;60.60;31.63;;;9.70;99.90;;;;;;4949639;28;20175;-67
2021/10/28 20:57:44;;;;;;;49.13;28.85;;;9.60;99.90;;;;;;4941683;28;20063;-69
2021/10/28 21:00:15;;;;;;;54.50;29.13;;;9.50;99.90;;;;;;4947663;28;20055;-72
2021/10/28 21:02:43;;;;;;;47.13;28.60;;;9.50;99.90;;;;;;4950549;28;20141;-70
2021/10/28 21:05:13;;;;;;;51.20;28.23;;;9.50;99.90;;;;;;4949039;28;20142;-69
2021/10/28 21:07:42;;;;;;;55.45;26.98;;;9.40;99.90;;;;;;4968004;28;20101;-73
2021/10/28 21:10:11;;;;;;;50.03;30.67;;;9.30;99.90;;;;;;4950750;28;20071;-67
2021/10/28 21:12:39;;;;;;;55.33;31.95;;;9.30;99.90;;;;;;4967437;28;20062;-65
2021/10/28 21:15:08;;;;;;;57.65;30.33;;;9.30;99.90;;;;;;4959458;28;20586;-66
2021/10/28 21:17:35;;;;;;;54.70;30.73;;;9.30;99.90;;;;;;4962042;28;20062;-65
2021/10/28 21:20:05;;;;;;;55.17;30.80;;;9.20;99.90;;;;;;4967313;28;20082;-67
2021/10/28 21:22:32;;;;;;;53.75;31.52;;;9.30;99.90;;;;;;4966581;28;20101;-68
2021/10/28 21:24:58;;;;;;;53.83;31.30;;;9.20;99.90;;;;;;4970118;28;20061;-65
2021/10/28 21:27:26;;;;;;;59.53;31.92;;;9.20;99.90;;;;;;4967951;28;20046;-65
2021/10/28 21:29:53;;;;;;;60.10;32.75;;;9.20;99.90;;;;;;4967743;28;20079;-66
2021/10/28 21:32:19;;;;;;;63.05;31.38;;;9.20;99.90;;;;;;4964886;28;20799;-66
2021/10/28 21:34:46;;;;;;;64.78;35.97;;;9.30;99.90;;;;;;4968398;28;20050;-69
2021/10/28 21:37:16;;;;;;;67.15;32.33;;;9.20;99.90;;;;;;4968087;28;20361;-67
2021/10/28 21:39:43;;;;;;;57.53;28.73;;;9.20;99.90;;;;;;4968834;28;20519;-68
2021/10/28 21:42:11;;;;;;;61.60;33.03;;;9.20;99.90;;;;;;4966929;28;20119;-73
2021/10/28 21:44:40;;;;;;;59.67;31.90;;;9.20;99.90;;;;;;4960710;28;20473;-70
2021/10/28 21:47:07;;;;;;;66.40;34.22;;;9.20;99.90;;;;;;4967922;28;20465;-65
2021/10/28 21:49:35;;;;;;;61.47;30.90;;;9.20;99.90;;;;;;4967288;28;20043;-65
2021/10/28 21:52:21;;;;;;;60.35;32.17;;;9.20;99.90;;;;;;4966740;28;20093;-74
2021/10/28 22:05:56;;;;;;;59.60;31.88;;;9.20;99.90;;;;;;4968225;28;20125;-71
2021/10/28 22:25:03;;;;;;;49.97;28.65;;;9.40;99.90;;;;;;4885411;28;20046;-66
2021/10/28 22:27:31;;;;;;;47.25;30.15;;;9.40;99.90;;;;;;977044;28;10001984;-65
2021/10/28 22:29:59;;;;;;;51.75;28.52;;;9.50;99.90;;;;;;4965495;28;20405;-68
2021/10/28 22:32:45;;;;;;;54.05;30.08;;;9.50;99.90;;;;;;4972039;28;20046;-65
2021/10/28 22:35:18;;;;;;;43.00;27.08;;;9.60;99.90;;;;;;4970755;28;20117;-65